Time;durP1;ratioP1;P1;durP2;ratioP2;P2;SDS_P1;SDS_P2;PMS_P1;PMS_P2;Temp;Humidity;BMP_temperature;BMP_pressure;BME280_temperature;BME280_humidity;BME280_pressure;Samples;Min_cycle;Max_cycle;Signal;HPM_P1;HPM_P2
2022/11/21 00:00:17;;;;;;;7.28;2.28;;;9.30;99.90;;;;;;5075772;28;20409;-80
2022/11/21 00:02:42;;;;;;;6.78;2.72;;;9.30;99.90;;;;;;5087245;28;20471;-81
2022/11/21 00:05:08;;;;;;;8.98;3.00;;;9.30;99.90;;;;;;5079721;28;20107;-80
2022/11/21 00:07:34;;;;;;;9.18;3.20;;;9.20;99.90;;;;;;5097792;28;20032;-80
2022/11/21 00:10:00;;;;;;;9.13;2.92;;;9.20;99.90;;;;;;5079357;28;20027;-78
2022/11/21 00:12:25;;;;;;;7.30;2.92;;;9.30;99.90;;;;;;5079381;28;20032;-78
2022/11/21 00:14:51;;;;;;;11.00;3.75;;;9.20;99.90;;;;;;5097470;28;20184;-78
2022/11/21 00:17:17;;;;;;;10.80;3.20;;;9.10;99.90;;;;;;5096957;28;20047;-78
2022/11/21 00:19:43;;;;;;;7.65;3.17;;;9.10;99.90;;;;;;5052300;28;20487;-78
2022/11/21 00:22:08;;;;;;;6.47;2.95;;;9.10;99.90;;;;;;5097488;28;20059;-79
2022/11/21 00:24:34;;;;;;;8.88;3.30;;;9.10;99.90;;;;;;5079098;28;20028;-78
2022/11/21 00:27:00;;;;;;;9.63;4.00;;;9.10;99.90;;;;;;5067989;28;20108;-78
2022/11/21 00:29:25;;;;;;;8.32;3.20;;;9.10;99.90;;;;;;5095208;28;20078;-79
2022/11/21 00:31:51;;;;;;;8.27;3.05;;;9.10;99.90;;;;;;5097151;28;20051;-78
2022/11/21 00:34:17;;;;;;;14.88;3.65;;;9.10;99.90;;;;;;5097162;28;20074;-78
2022/11/21 00:36:42;;;;;;;8.25;3.38;;;9.20;99.90;;;;;;5097260;28;20020;-78
2022/11/21 00:39:08;;;;;;;9.55;3.15;;;9.20;99.90;;;;;;5056807;28;20033;-78
2022/11/21 00:41:34;;;;;;;11.75;3.10;;;9.20;99.90;;;;;;5080972;28;20031;-78
2022/11/21 00:43:59;;;;;;;7.45;2.85;;;9.20;99.90;;;;;;5061875;28;20531;-78
2022/11/21 00:46:25;;;;;;;8.20;3.00;;;9.20;99.90;;;;;;5078416;28;20028;-77
2022/11/21 00:48:51;;;;;;;8.98;2.50;;;9.20;99.90;;;;;;5092365;28;20633;-78
2022/11/21 00:51:16;;;;;;;11.32;2.63;;;9.20;99.90;;;;;;5078223;28;20395;-78
2022/11/21 00:53:42;;;;;;;10.52;2.85;;;9.20;99.90;;;;;;5094683;28;20024;-79
2022/11/21 00:56:08;;;;;;;8.80;3.30;;;9.20;99.90;;;;;;5095667;28;20029;-80
2022/11/21 00:58:34;;;;;;;10.60;2.80;;;9.30;99.90;;;;;;5079015;28;20030;-80
2022/11/21 01:01:05;;;;;;;7.32;2.22;;;9.20;99.90;;;;;;5078856;28;20052;-79
2022/11/21 01:03:33;;;;;;;7.85;2.70;;;9.20;99.90;;;;;;5096813;28;20023;-79
2022/11/21 01:06:06;;;;;;;5.45;2.03;;;9.20;99.90;;;;;;5078398;28;20468;-79
2022/11/21 01:08:34;;;;;;;6.25;2.40;;;9.20;99.90;;;;;;5078941;28;20073;-79
2022/11/21 01:11:09;;;;;;;9.07;2.63;;;9.20;99.90;;;;;;5097126;28;20480;-79
2022/11/21 01:13:35;;;;;;;9.68;2.63;;;9.20;99.90;;;;;;5097101;28;20024;-78
2022/11/21 01:16:30;;;;;;;5.05;2.30;;;9.20;99.90;;;;;;5096750;28;20134;-78
2022/11/21 01:18:56;;;;;;;5.85;2.25;;;9.20;99.90;;;;;;5067560;28;20044;-78
2022/11/21 01:21:24;;;;;;;9.30;2.55;;;9.20;99.90;;;;;;5058301;28;20584;-81
2022/11/21 01:23:50;;;;;;;7.93;2.28;;;9.30;99.90;;;;;;5089027;28;20020;-81
2022/11/21 01:26:19;;;;;;;10.57;3.10;;;9.30;99.90;;;;;;5072925;28;20448;-80
2022/11/21 01:28:45;;;;;;;8.90;2.50;;;9.20;99.90;;;;;;5091865;28;20051;-79
2022/11/21 01:31:16;;;;;;;9.63;2.47;;;9.30;99.90;;;;;;5100384;28;20464;-80
2022/11/21 01:33:42;;;;;;;9.95;2.35;;;9.30;99.90;;;;;;5082372;28;20444;-79
2022/11/21 01:36:08;;;;;;;9.88;2.45;;;9.30;99.90;;;;;;5100936;28;20024;-79
2022/11/21 01:38:34;;;;;;;6.72;2.15;;;9.30;99.90;;;;;;5100455;28;20085;-79
2022/11/21 01:41:00;;;;;;;9.68;2.60;;;9.40;99.90;;;;;;5064037;28;20028;-78
2022/11/21 01:43:26;;;;;;;9.82;2.60;;;9.40;99.90;;;;;;5094288;28;20020;-80
2022/11/21 01:45:58;;;;;;;8.50;2.80;;;9.40;99.90;;;;;;5081855;28;20058;-80
2022/11/21 01:48:33;;;;;;;9.85;2.90;;;9.40;99.90;;;;;;5067047;28;20052;-80
2022/11/21 01:51:15;;;;;;;9.95;2.40;;;9.40;99.90;;;;;;5100225;28;20032;-80
2022/11/21 01:53:44;;;;;;;11.10;2.45;;;9.40;99.90;;;;;;5081988;28;20028;-79
2022/11/21 01:56:10;;;;;;;6.88;2.17;;;9.40;99.90;;;;;;5082285;28;20483;-78
2022/11/21 01:58:38;;;;;;;8.80;2.40;;;9.40;99.90;;;;;;5099989;28;20020;-78
2022/11/21 02:01:04;;;;;;;8.95;2.58;;;9.40;99.90;;;;;;5099810;28;20024;-78
2022/11/21 02:03:35;;;;;;;11.60;2.38;;;9.30;99.90;;;;;;5081834;28;20016;-78
2022/11/21 02:06:00;;;;;;;5.32;2.10;;;9.30;99.90;;;;;;5096491;28;20040;-77
2022/11/21 02:08:28;;;;;;;5.55;2.00;;;9.30;99.90;;;;;;5082719;28;20028;-78
2022/11/21 02:11:29;;;;;;;8.23;2.22;;;9.30;99.90;;;;;;5091233;28;20599;-78
2022/11/21 02:13:55;;;;;;;7.38;1.88;;;9.30;99.90;;;;;;5062667;28;20535;-78
2022/11/21 02:16:22;;;;;;;7.38;2.15;;;9.30;99.90;;;;;;5061213;28;20028;-78
2022/11/21 02:18:47;;;;;;;7.47;2.35;;;9.30;99.90;;;;;;5078920;28;20056;-78
2022/11/21 02:21:27;;;;;;;8.50;2.10;;;9.40;99.90;;;;;;5061721;28;20400;-78
2022/11/21 02:24:15;;;;;;;8.45;2.33;;;9.40;99.90;;;;;;5079203;28;21145;-80
2022/11/21 02:26:41;;;;;;;6.25;1.58;;;9.40;99.90;;;;;;5078612;28;20032;-79
2022/11/21 02:29:08;;;;;;;8.70;2.50;;;9.40;99.90;;;;;;5078751;28;20044;-80
2022/11/21 02:31:33;;;;;;;7.60;1.90;;;9.40;99.90;;;;;;5061310;28;20025;-80
2022/11/21 02:33:59;;;;;;;6.10;1.77;;;9.40;99.90;;;;;;5079002;28;20029;-80
2022/11/21 02:36:43;;;;;;;8.73;2.17;;;9.40;99.90;;;;;;5061348;28;20032;-80
2022/11/21 02:39:26;;;;;;;6.68;1.77;;;9.50;99.90;;;;;;5079001;28;20557;-79
2022/11/21 02:42:06;;;;;;;8.43;1.85;;;9.50;99.90;;;;;;5078863;28;20024;-80
2022/11/21 02:44:42;;;;;;;8.52;2.03;;;9.50;99.90;;;;;;5061078;28;20369;-79
2022/11/21 02:47:08;;;;;;;7.90;1.75;;;9.50;99.90;;;;;;5060788;28;20028;-80
2022/11/21 02:49:56;;;;;;;7.97;1.90;;;9.60;99.90;;;;;;5078882;28;20027;-79
2022/11/21 02:52:22;;;;;;;7.88;1.75;;;9.60;99.90;;;;;;5060971;28;20453;-78
2022/11/21 02:54:48;;;;;;;9.43;2.05;;;9.60;99.90;;;;;;5078588;28;20025;-78
2022/11/21 02:57:13;;;;;;;8.60;2.10;;;9.60;99.90;;;;;;5078515;28;20031;-78
2022/11/21 02:59:39;;;;;;;10.05;2.22;;;9.60;99.90;;;;;;5078592;28;20024;-79
2022/11/21 03:02:04;;;;;;;6.93;2.20;;;9.60;99.90;;;;;;5077844;28;20033;-78
2022/11/21 03:04:30;;;;;;;5.82;2.20;;;9.60;99.90;;;;;;5078596;28;20025;-78
2022/11/21 03:06:56;;;;;;;7.30;2.00;;;9.60;99.90;;;;;;5060522;28;20028;-78
2022/11/21 03:09:22;;;;;;;7.93;1.98;;;9.60;99.90;;;;;;5078089;28;20021;-78
2022/11/21 03:11:47;;;;;;;11.70;2.80;;;9.60;99.90;;;;;;5060509;28;20032;-78
2022/11/21 03:14:13;;;;;;;8.27;1.92;;;9.60;99.90;;;;;;5078265;28;20024;-79
2022/11/21 03:16:38;;;;;;;6.32;1.70;;;9.60;99.90;;;;;;5061967;28;20109;-78
2022/11/21 03:19:04;;;;;;;10.73;2.38;;;9.60;99.90;;;;;;5079663;28;20063;-78
2022/11/21 03:21:30;;;;;;;7.10;1.95;;;9.60;99.90;;;;;;5098428;28;20016;-79
2022/11/21 03:23:55;;;;;;;6.88;2.00;;;9.60;99.90;;;;;;5098247;28;20028;-79
2022/11/21 03:26:21;;;;;;;13.52;2.60;;;9.60;99.90;;;;;;5088103;28;20020;-78
2022/11/21 03:28:47;;;;;;;8.07;2.05;;;9.50;99.90;;;;;;5098134;28;20066;-77
2022/11/21 03:31:12;;;;;;;5.63;1.98;;;9.60;99.90;;;;;;5079707;28;20032;-77
2022/11/21 03:33:38;;;;;;;7.30;2.08;;;9.60;99.90;;;;;;5097514;28;20081;-78
2022/11/21 03:36:04;;;;;;;12.10;3.03;;;9.60;99.90;;;;;;5080017;28;20435;-78
2022/11/21 03:38:30;;;;;;;10.02;2.67;;;9.60;99.90;;;;;;5097808;28;20484;-78
2022/11/21 03:40:56;;;;;;;9.90;2.28;;;9.60;99.90;;;;;;5079810;28;20028;-78
2022/11/21 03:43:22;;;;;;;11.70;2.58;;;9.60;99.90;;;;;;5097950;28;20032;-78
2022/11/21 03:45:47;;;;;;;8.18;1.98;;;9.60;99.90;;;;;;5097555;28;20024;-79
2022/11/21 03:48:17;;;;;;;11.15;2.90;;;9.60;99.90;;;;;;5097752;28;20035;-80
2022/11/21 03:50:43;;;;;;;7.63;2.38;;;9.60;99.90;;;;;;5078940;28;20024;-81
2022/11/21 03:53:09;;;;;;;7.05;2.00;;;9.60;99.90;;;;;;5079402;28;20399;-81
2022/11/21 03:55:34;;;;;;;8.05;2.67;;;9.60;99.90;;;;;;5071785;28;20086;-82
2022/11/21 03:58:00;;;;;;;11.60;3.10;;;9.60;99.90;;;;;;5089921;28;20032;-82
2022/11/21 04:00:26;;;;;;;14.55;3.08;;;9.60;99.90;;;;;;5078661;28;20066;-81
2022/11/21 04:02:51;;;;;;;8.98;2.70;;;9.60;99.90;;;;;;5096276;28;20035;-81
2022/11/21 04:05:17;;;;;;;11.55;2.10;;;9.60;99.90;;;;;;5079130;28;20024;-81
2022/11/21 04:07:44;;;;;;;9.18;2.17;;;9.60;99.90;;;;;;5079000;28;20035;-82
2022/11/21 04:10:09;;;;;;;9.15;2.65;;;9.50;99.90;;;;;;5096500;28;20081;-80
2022/11/21 04:12:35;;;;;;;9.60;2.33;;;9.60;99.90;;;;;;5095748;28;20115;-80
2022/11/21 04:15:01;;;;;;;7.57;2.17;;;9.60;99.90;;;;;;5079169;28;20032;-80
2022/11/21 04:17:33;;;;;;;5.85;2.05;;;9.60;99.90;;;;;;5096838;28;20055;-82
2022/11/21 04:20:17;;;;;;;;;;;;;;;;;;;;;
2022/11/21 04:22:52;;;;;;;;;;;;;;;;;;;;;
2022/11/21 04:25:51;;;;;;;;;;;;;;;;;;;;;
2022/11/21 04:29:07;;;;;;;;;;;;;;;;;;;;;
2022/11/21 04:32:35;;;;;;;;;;;;;;;;;;;;;
2022/11/21 04:35:56;;;;;;;;;;;;;;;;;;;;;
2022/11/21 04:41:33;;;;;;;6.60;2.33;;;9.60;99.90;;;;;;5044156;28;20377;-81
2022/11/21 04:43:59;;;;;;;5.78;2.00;;;9.60;99.90;;;;;;5097202;28;20031;-82
2022/11/21 04:46:25;;;;;;;4.38;1.65;;;9.60;99.90;;;;;;5077605;28;20058;-81
2022/11/21 04:48:50;;;;;;;7.97;1.65;;;9.60;99.90;;;;;;5096844;28;20028;-80
2022/11/21 04:51:16;;;;;;;8.68;2.03;;;9.60;99.90;;;;;;5096386;28;20036;-82
2022/11/21 04:53:42;;;;;;;10.10;1.95;;;9.60;99.90;;;;;;5078141;28;20064;-81
2022/11/21 04:56:07;;;;;;;6.80;1.90;;;9.60;99.90;;;;;;5102158;28;20051;-81
2022/11/21 04:58:33;;;;;;;6.70;1.65;;;9.60;99.90;;;;;;5099049;28;20084;-81
2022/11/21 05:01:05;;;;;;;9.85;2.13;;;9.60;99.90;;;;;;5097267;28;20047;-81
2022/11/21 05:03:31;;;;;;;7.35;2.10;;;9.70;99.90;;;;;;5080687;28;20016;-81
2022/11/21 05:06:01;;;;;;;10.82;2.05;;;9.60;99.90;;;;;;5083375;28;20100;-84
2022/11/21 05:08:30;;;;;;;9.18;1.98;;;9.70;99.90;;;;;;5083196;28;20028;-81
2022/11/21 05:17:27;;;;;;;8.70;2.03;;;9.70;99.90;;;;;;5085514;28;20134;-82
2022/11/21 05:20:00;;;;;;;7.93;1.88;;;9.70;99.90;;;;;;5082392;28;20434;-82
2022/11/21 05:22:49;;;;;;;11.70;2.13;;;9.70;99.90;;;;;;5100967;28;20024;-81
2022/11/21 05:28:44;;;;;;;;;;;;;;;;;;;;;
2022/11/21 05:32:03;;;;;;;;;;;;;;;;;;;;;
2022/11/21 05:34:36;;;;;;;8.48;2.05;;;9.90;99.90;;;;;;5095405;28;20107;-81
2022/11/21 05:44:01;;;;;;;;;;;;;;;;;;;;;
2022/11/21 06:06:18;;;;;;;5.57;1.30;;;10.20;99.90;;;;;;4999811;28;20053;-85
2022/11/21 06:08:45;;;;;;;4.78;1.40;;;10.20;99.90;;;;;;5017942;28;20038;-81
2022/11/21 06:11:13;;;;;;;6.78;1.58;;;10.20;99.90;;;;;;5040900;28;20032;-81
2022/11/21 06:13:39;;;;;;;10.15;1.90;;;10.20;99.90;;;;;;5074615;28;20029;-81
2022/11/21 06:16:07;;;;;;;7.32;1.52;;;10.30;99.90;;;;;;5081024;28;20024;-81
2022/11/21 06:18:35;;;;;;;8.88;1.83;;;10.30;99.90;;;;;;5099386;28;20040;-82
2022/11/21 06:21:07;;;;;;;6.57;1.40;;;10.30;99.90;;;;;;5079408;28;20012;-82
2022/11/21 06:23:33;;;;;;;9.90;1.85;;;10.30;99.90;;;;;;5081743;28;20495;-80
2022/11/21 06:26:02;;;;;;;8.32;1.45;;;10.30;99.90;;;;;;5101431;28;20574;-83
2022/11/21 06:28:33;;;;;;;8.88;1.48;;;10.40;99.90;;;;;;5081701;28;20028;-83
2022/11/21 06:31:12;;;;;;;5.65;1.50;;;10.40;99.90;;;;;;5080686;28;20028;-83
2022/11/21 06:33:39;;;;;;;7.95;1.88;;;10.40;99.90;;;;;;5080951;28;20395;-83
2022/11/21 06:36:10;;;;;;;8.05;1.45;;;10.40;99.90;;;;;;5098617;28;20028;-83
2022/11/21 06:38:35;;;;;;;9.48;1.90;;;10.40;99.90;;;;;;5098124;28;20024;-82
2022/11/21 06:41:04;;;;;;;11.13;2.05;;;10.30;99.90;;;;;;5098636;28;20021;-81
2022/11/21 06:43:30;;;;;;;7.28;1.92;;;10.40;99.90;;;;;;5079603;28;20032;-80
2022/11/21 06:45:57;;;;;;;11.18;1.67;;;10.40;99.90;;;;;;5078368;28;20020;-80
2022/11/21 06:48:23;;;;;;;10.15;1.92;;;10.30;99.90;;;;;;5080232;28;20028;-81
2022/11/21 06:50:49;;;;;;;7.55;1.65;;;10.40;99.90;;;;;;5080753;28;20077;-81
2022/11/21 06:53:14;;;;;;;9.32;2.05;;;10.30;99.90;;;;;;5098829;28;20024;-80
2022/11/21 06:55:40;;;;;;;9.18;2.05;;;10.40;99.90;;;;;;5098940;28;20047;-80
2022/11/21 06:58:06;;;;;;;9.40;1.70;;;10.30;99.90;;;;;;5099004;28;20027;-80
2022/11/21 07:00:32;;;;;;;7.85;2.08;;;10.30;99.90;;;;;;5098445;28;20088;-81
2022/11/21 07:03:01;;;;;;;7.07;1.92;;;10.30;99.90;;;;;;5083119;28;20028;-82
2022/11/21 07:05:28;;;;;;;7.95;1.65;;;10.40;99.90;;;;;;5098847;28;20043;-82
2022/11/21 07:08:01;;;;;;;7.70;1.70;;;10.30;99.90;;;;;;5080765;28;20032;-82
2022/11/21 07:10:28;;;;;;;10.18;1.83;;;10.30;99.90;;;;;;5080902;28;20020;-84
2022/11/21 07:15:43;;;;;;;6.68;1.80;;;10.30;99.90;;;;;;5097954;28;20085;-83
2022/11/21 07:18:16;;;;;;;13.65;1.92;;;10.30;99.90;;;;;;5078967;28;20040;-82
2022/11/21 07:21:03;;;;;;;;;;;10.30;99.90;;;;;;5077487;28;20499;-81
2022/11/21 07:23:29;;;;;;;8.38;1.48;;;10.30;99.90;;;;;;5085512;28;19904;-81
2022/11/21 07:25:58;;;;;;;7.68;1.58;;;10.30;99.90;;;;;;5079120;28;20836;-81
2022/11/21 07:28:23;;;;;;;6.47;1.40;;;10.30;99.90;;;;;;5097248;28;20372;-81
2022/11/21 07:30:49;;;;;;;8.65;1.70;;;10.30;99.90;;;;;;5097051;28;20032;-79
2022/11/21 07:33:15;;;;;;;7.90;1.73;;;10.30;99.90;;;;;;5098144;28;20043;-80
2022/11/21 07:35:42;;;;;;;6.82;1.83;;;10.30;99.90;;;;;;5080287;28;20032;-80
2022/11/21 07:38:08;;;;;;;6.50;1.60;;;10.40;99.90;;;;;;5079264;28;20026;-83
2022/11/21 07:40:34;;;;;;;8.05;1.75;;;10.30;99.90;;;;;;5097810;28;20076;-84
2022/11/21 07:43:01;;;;;;;10.20;2.03;;;10.30;99.90;;;;;;5097946;28;20557;-83
2022/11/21 07:45:27;;;;;;;8.02;1.58;;;10.40;99.90;;;;;;5098285;28;20040;-81
2022/11/21 07:48:00;;;;;;;12.02;1.80;;;10.40;99.90;;;;;;5095868;28;20102;-81
2022/11/21 07:50:26;;;;;;;6.22;1.48;;;10.40;99.90;;;;;;5093995;28;20020;-81
2022/11/21 07:52:56;;;;;;;8.30;1.55;;;10.40;99.90;;;;;;5084922;28;20035;-82
2022/11/21 07:55:22;;;;;;;5.43;1.65;;;10.40;99.90;;;;;;5100730;28;20035;-82
2022/11/21 07:57:55;;;;;;;9.90;1.70;;;10.40;99.90;;;;;;5097874;28;20483;-83
2022/11/21 08:00:21;;;;;;;;;;;10.40;99.90;;;;;;5079852;28;20403;-83
2022/11/21 08:02:46;;;;;;;4.22;1.33;;;10.40;99.90;;;;;;5098001;28;19904;-81
2022/11/21 08:05:12;;;;;;;5.47;1.60;;;10.40;99.90;;;;;;5097611;28;20034;-78
2022/11/21 08:07:38;;;;;;;7.25;1.63;;;10.50;99.90;;;;;;5079533;28;20016;-73
2022/11/21 08:10:04;;;;;;;6.72;1.23;;;10.50;99.90;;;;;;5098176;28;20051;-77
2022/11/21 08:12:31;;;;;;;7.63;1.55;;;10.50;99.90;;;;;;5097862;28;20020;-71
2022/11/21 08:14:57;;;;;;;9.25;1.77;;;10.60;99.90;;;;;;5079376;28;20502;-79
2022/11/21 08:17:25;;;;;;;10.52;1.80;;;10.60;99.90;;;;;;5097195;28;20044;-76
2022/11/21 08:19:51;;;;;;;7.15;1.55;;;10.50;99.90;;;;;;5075380;28;20031;-72
2022/11/21 08:22:16;;;;;;;7.00;1.30;;;10.60;99.90;;;;;;5092870;28;20085;-74
2022/11/21 08:24:42;;;;;;;5.63;1.45;;;10.60;99.90;;;;;;5097826;28;20698;-74
2022/11/21 08:27:08;;;;;;;7.22;1.85;;;10.50;99.90;;;;;;5091292;28;20056;-77
2022/11/21 08:29:33;;;;;;;7.40;1.63;;;10.50;99.90;;;;;;5080648;28;20054;-77
2022/11/21 08:31:59;;;;;;;8.88;1.50;;;10.30;99.90;;;;;;5105386;28;20035;-79
2022/11/21 08:34:25;;;;;;;4.38;1.20;;;10.30;99.90;;;;;;5096294;28;20431;-78
2022/11/21 08:36:52;;;;;;;6.95;1.30;;;10.30;99.90;;;;;;5103268;28;20024;-74
2022/11/21 08:39:17;;;;;;;8.55;1.50;;;10.20;99.90;;;;;;5101272;28;20588;-75
2022/11/21 08:42:02;;;;;;;6.13;1.65;;;10.20;99.90;;;;;;5106443;28;20055;-74
2022/11/21 08:44:28;;;;;;;7.50;1.63;;;10.20;99.90;;;;;;5084892;28;20067;-76
2022/11/21 08:46:55;;;;;;;5.18;1.42;;;10.20;99.90;;;;;;5097716;28;20032;-78
2022/11/21 08:49:20;;;;;;;5.20;1.42;;;10.20;99.90;;;;;;5102931;28;20042;-75
2022/11/21 08:51:50;;;;;;;5.95;1.50;;;10.20;99.90;;;;;;5077839;28;20062;-75
2022/11/21 08:54:17;;;;;;;10.82;2.13;;;10.10;99.90;;;;;;5078675;28;20052;-75
2022/11/21 08:56:43;;;;;;;6.63;1.25;;;10.20;99.90;;;;;;5095032;28;20024;-77
2022/11/21 08:59:09;;;;;;;5.65;1.45;;;10.10;99.90;;;;;;5100068;28;20039;-74
2022/11/21 09:01:35;;;;;;;3.40;1.05;;;10.20;99.90;;;;;;5094296;28;20024;-73
2022/11/21 09:04:01;;;;;;;5.00;1.60;;;10.10;99.90;;;;;;5095931;28;20091;-76
2022/11/21 09:06:26;;;;;;;6.32;1.20;;;10.20;99.90;;;;;;5095249;28;20111;-76
2022/11/21 09:08:52;;;;;;;3.88;1.20;;;10.20;99.90;;;;;;5095821;28;20361;-76
2022/11/21 09:11:18;;;;;;;3.40;1.00;;;10.20;99.90;;;;;;5096739;28;20032;-75
2022/11/21 09:18:01;;;;;;;3.92;1.05;;;10.20;99.90;;;;;;5096743;28;20016;-77
2022/11/21 09:19:13;;;;;;;5.85;1.23;;;10.20;99.90;;;;;;5102417;28;20554;-76
2022/11/21 09:21:39;;;;;;;3.70;1.00;;;10.20;99.90;;;;;;5078071;28;20028;-75
2022/11/21 09:24:04;;;;;;;5.57;1.20;;;10.20;99.90;;;;;;5096864;28;20055;-75
2022/11/21 09:26:30;;;;;;;6.72;1.52;;;10.20;99.90;;;;;;5078399;28;20030;-76
2022/11/21 09:28:56;;;;;;;2.92;0.82;;;10.20;99.90;;;;;;5096485;28;20020;-76
2022/11/21 09:31:22;;;;;;;5.20;1.15;;;10.30;99.90;;;;;;5095467;28;20028;-76
2022/11/21 09:33:47;;;;;;;2.70;0.90;;;10.30;99.90;;;;;;5102921;28;20024;-76
2022/11/21 09:36:13;;;;;;;4.03;0.88;;;10.30;99.90;;;;;;5077647;28;20032;-75
2022/11/21 09:38:38;;;;;;;1.58;0.65;;;10.30;99.90;;;;;;5109916;28;20030;-75
2022/11/21 09:44:32;;;;;;;4.03;1.05;;;10.30;99.90;;;;;;5101724;28;20027;-75
2022/11/21 09:47:45;;;;;;;3.42;1.20;;;10.30;99.90;;;;;;5095694;28;20147;-76
2022/11/21 09:50:11;;;;;;;3.72;1.00;;;10.30;99.90;;;;;;5075627;28;20120;-75
2022/11/21 09:52:52;;;;;;;3.22;0.80;;;10.30;99.90;;;;;;5099821;28;20052;-75
2022/11/21 09:55:30;;;;;;;2.72;0.70;;;10.30;99.90;;;;;;5082201;28;20016;-75
2022/11/21 09:57:57;;;;;;;3.17;1.08;;;10.30;99.90;;;;;;5107570;28;20036;-75
2022/11/21 10:00:24;;;;;;;2.45;0.60;;;10.40;99.90;;;;;;5100676;28;20027;-76
2022/11/21 10:02:54;;;;;;;1.98;0.60;;;10.40;99.90;;;;;;5109526;28;20020;-76
2022/11/21 10:05:36;;;;;;;4.07;1.13;;;10.40;99.90;;;;;;5081177;28;20016;-76
2022/11/21 10:08:31;;;;;;;2.03;0.50;;;10.30;99.90;;;;;;5107349;28;20020;-76
2022/11/21 10:11:17;;;;;;;2.05;0.57;;;10.40;99.90;;;;;;5080379;28;20055;-76
2022/11/21 10:13:48;;;;;;;1.13;0.63;;;10.40;99.90;;;;;;5081421;28;20027;-77
2022/11/21 10:16:48;;;;;;;0.75;0.57;;;10.40;99.90;;;;;;5106230;28;20012;-76
2022/11/21 10:19:48;;;;;;;1.20;0.68;;;10.40;99.90;;;;;;5101182;28;20036;-79
2022/11/21 10:22:50;;;;;;;2.20;1.00;;;10.50;99.90;;;;;;5080572;28;20503;-78
2022/11/21 10:25:29;;;;;;;1.45;0.88;;;10.50;99.90;;;;;;5025095;28;20031;-78
2022/11/21 10:28:03;;;;;;;3.28;0.50;;;10.50;99.90;;;;;;5090330;28;20036;-76
2022/11/21 10:30:29;;;;;;;2.00;0.60;;;10.60;99.90;;;;;;5068420;28;20067;-76
2022/11/21 10:33:03;;;;;;;1.23;0.50;;;10.60;99.90;;;;;;5079388;28;20081;-76
2022/11/21 10:35:47;;;;;;;0.45;0.32;;;10.60;99.90;;;;;;5073493;28;20472;-76
2022/11/21 10:38:25;;;;;;;1.15;0.50;;;10.80;99.90;;;;;;5108568;28;20035;-77
2022/11/21 10:41:10;;;;;;;2.03;0.68;;;10.80;99.90;;;;;;5080785;28;20020;-77
2022/11/21 10:46:24;;;;;;;3.60;0.90;;;10.90;99.90;;;;;;5098707;28;20035;-76
2022/11/21 10:49:01;;;;;;;2.15;0.60;;;11.00;99.90;;;;;;5080839;28;20024;-77
2022/11/21 10:51:44;;;;;;;2.83;0.90;;;11.10;99.90;;;;;;5097838;28;20031;-78
2022/11/21 10:57:11;;;;;;;2.03;0.70;;;11.40;99.90;;;;;;5078908;28;20043;-77
2022/11/21 10:59:37;;;;;;;1.73;0.60;;;11.50;99.90;;;;;;5100721;28;20077;-78
2022/11/21 11:02:24;;;;;;;3.30;0.85;;;11.50;99.90;;;;;;5099014;28;20028;-77
2022/11/21 11:05:12;;;;;;;6.30;1.27;;;11.60;99.90;;;;;;5095896;28;20386;-76
2022/11/21 11:07:38;;;;;;;7.50;1.38;;;11.70;99.90;;;;;;5100817;28;20055;-75
2022/11/21 11:10:23;;;;;;;7.40;1.50;;;11.80;99.90;;;;;;5098404;28;20024;-75
2022/11/21 11:15:38;;;;;;;10.80;2.10;;;12.10;99.90;;;;;;5097174;28;20099;-77
2022/11/21 11:18:05;;;;;;;5.53;1.77;;;12.30;99.90;;;;;;5093660;28;20458;-76
2022/11/21 11:20:42;;;;;;;8.18;1.90;;;12.30;99.90;;;;;;5097960;28;20047;-76
2022/11/21 11:23:23;;;;;;;11.00;2.15;;;12.50;99.90;;;;;;5112174;28;20050;-78
2022/11/21 11:25:52;;;;;;;5.20;1.45;;;12.50;99.90;;;;;;5108517;27;20066;-78
2022/11/21 11:28:19;;;;;;;4.28;1.25;;;12.50;99.90;;;;;;5102076;28;20028;-77
2022/11/21 11:30:46;;;;;;;9.15;1.77;;;12.60;99.90;;;;;;5119026;27;20449;-77
2022/11/21 11:33:35;;;;;;;8.85;1.63;;;12.60;99.90;;;;;;5114554;27;20028;-78
2022/11/21 11:36:17;;;;;;;10.50;1.77;;;12.60;99.90;;;;;;5098890;28;20027;-74
2022/11/21 11:38:47;;;;;;;9.85;1.75;;;12.60;99.90;;;;;;5108830;27;20027;-76
2022/11/21 11:48:00;;;;;;;7.13;1.40;;;12.50;99.90;;;;;;5119117;27;20096;-76
2022/11/21 11:50:44;;;;;;;7.78;2.13;;;12.50;99.90;;;;;;5114019;27;20024;-75
2022/11/21 11:53:12;;;;;;;15.50;2.30;;;12.40;99.90;;;;;;5095895;27;20030;-75
2022/11/21 11:55:51;;;;;;;6.43;1.40;;;12.40;99.90;;;;;;5086311;28;20024;-74
2022/11/21 11:58:49;;;;;;;11.95;2.08;;;12.30;99.90;;;;;;5099890;28;20024;-73
2022/11/21 12:01:25;;;;;;;7.03;1.85;;;12.30;99.90;;;;;;5110714;28;20023;-75
2022/11/21 12:04:12;;;;;;;13.23;2.10;;;12.30;99.90;;;;;;5117949;27;20029;-74
2022/11/21 12:06:56;;;;;;;10.98;1.80;;;12.20;99.90;;;;;;5094827;28;20023;-74
2022/11/21 12:09:33;;;;;;;11.73;2.40;;;12.30;99.90;;;;;;5110032;27;20082;-74
2022/11/21 12:12:08;;;;;;;9.68;2.00;;;12.30;99.90;;;;;;5085635;28;20028;-75
2022/11/21 12:17:44;;;;;;;10.40;1.73;;;12.30;99.90;;;;;;5117061;28;20414;-75
2022/11/21 12:20:14;;;;;;;;;;;12.30;99.90;;;;;;5099634;28;20026;-75
2022/11/21 12:22:41;;;;;;;8.05;1.60;;;12.40;99.90;;;;;;5099389;28;19904;-75
2022/11/21 12:25:11;;;;;;;11.50;2.30;;;12.40;99.90;;;;;;5101337;28;20389;-75
2022/11/21 12:27:40;;;;;;;9.77;1.73;;;12.40;99.90;;;;;;5100631;28;20510;-75
2022/11/21 12:30:43;;;;;;;11.73;2.00;;;12.50;99.90;;;;;;5097489;28;20035;-74
2022/11/21 12:33:22;;;;;;;12.98;1.70;;;12.50;99.90;;;;;;5106267;28;20027;-75
2022/11/21 12:36:06;;;;;;;10.80;2.33;;;12.70;99.90;;;;;;5117738;28;20023;-73
2022/11/21 12:38:49;;;;;;;9.10;1.77;;;12.80;99.90;;;;;;5117782;28;20024;-73
2022/11/21 12:44:49;;;;;;;12.00;1.63;;;12.90;99.90;;;;;;5117908;28;20089;-74
2022/11/21 12:54:29;;;;;;;8.48;1.70;;;12.80;99.90;;;;;;5117353;28;20052;-75
2022/11/21 12:56:45;;;;;;;8.68;1.45;;;12.50;99.90;;;;;;5071002;28;20043;-75
2022/11/21 12:59:14;;;;;;;11.52;1.67;;;12.30;99.90;;;;;;5117400;28;20040;-75
2022/11/21 13:02:22;;;;;;;9.05;1.70;;;12.30;99.80;;;;;;5117350;28;20024;-75
2022/11/21 13:04:49;;;;;;;7.13;1.60;;;12.30;99.90;;;;;;5117467;28;20132;-74
2022/11/21 13:07:15;;;;;;;6.57;2.05;;;12.40;99.90;;;;;;5117508;28;20016;-75
2022/11/21 13:09:46;;;;;;;7.95;1.70;;;12.50;99.80;;;;;;5117360;28;20028;-75
2022/11/21 13:12:21;;;;;;;11.60;2.15;;;12.60;99.90;;;;;;5117706;28;20024;-75
2022/11/21 13:14:52;;;;;;;9.35;1.83;;;12.80;99.90;;;;;;5099456;28;20432;-75
2022/11/21 13:17:27;;;;;;;7.05;1.80;;;12.80;99.90;;;;;;5116986;28;20475;-75
2022/11/21 13:20:11;;;;;;;7.53;1.50;;;12.80;97.90;;;;;;5099152;28;20032;-75
2022/11/21 13:22:37;;;;;;;8.25;1.83;;;12.70;94.80;;;;;;5098941;28;20028;-73
2022/11/21 13:25:13;;;;;;;8.15;1.50;;;12.50;97.90;;;;;;5125199;27;20015;-74
2022/11/21 13:27:43;;;;;;;8.38;1.90;;;12.40;95.90;;;;;;5108316;27;20039;-75
2022/11/21 13:30:10;;;;;;;7.40;1.25;;;12.30;96.30;;;;;;5100900;28;20102;-74
2022/11/21 13:32:42;;;;;;;6.13;1.35;;;12.30;95.40;;;;;;5099876;28;20024;-75
2022/11/21 13:35:13;;;;;;;5.05;1.10;;;12.20;96.10;;;;;;5118965;28;20737;-75
2022/11/21 13:38:05;;;;;;;3.45;1.02;;;12.10;95.60;;;;;;5101077;28;20669;-75
2022/11/21 13:40:36;;;;;;;4.53;1.00;;;12.00;96.70;;;;;;5109945;28;20032;-74
2022/11/21 13:43:08;;;;;;;6.88;1.13;;;11.90;96.30;;;;;;5120109;28;20020;-75
2022/11/21 13:45:39;;;;;;;6.93;1.20;;;11.90;97.30;;;;;;5120066;28;20032;-74
2022/11/21 13:48:30;;;;;;;6.63;1.10;;;12.00;96.90;;;;;;5120145;28;20026;-75
2022/11/21 13:51:07;;;;;;;5.80;0.73;;;11.90;97.00;;;;;;5103096;28;20027;-75
2022/11/21 13:53:54;;;;;;;5.70;1.15;;;11.90;95.70;;;;;;5120679;28;20141;-74
2022/11/21 13:56:40;;;;;;;6.28;1.10;;;11.80;96.20;;;;;;5121231;28;20027;-74
2022/11/21 13:59:05;;;;;;;3.97;0.98;;;11.90;97.40;;;;;;5121078;28;20015;-74
2022/11/21 14:01:40;;;;;;;4.90;1.00;;;11.90;97.80;;;;;;5120313;28;20368;-75
2022/11/21 14:04:11;;;;;;;5.03;1.17;;;11.90;96.60;;;;;;5120697;28;20019;-75
2022/11/21 14:06:42;;;;;;;4.45;1.35;;;11.90;97.50;;;;;;5120453;28;20035;-74
2022/11/21 14:09:27;;;;;;;5.75;1.08;;;11.80;96.70;;;;;;5120658;28;20022;-74
2022/11/21 14:12:18;;;;;;;6.38;1.17;;;11.80;97.10;;;;;;5120624;28;20049;-74
2022/11/21 14:14:54;;;;;;;5.68;1.05;;;11.90;96.30;;;;;;5120412;28;20051;-74
2022/11/21 14:17:45;;;;;;;6.35;1.23;;;11.90;96.80;;;;;;5120201;28;20039;-74
2022/11/21 14:20:14;;;;;;;7.53;1.15;;;11.80;95.50;;;;;;5107948;28;20035;-74
2022/11/21 14:23:00;;;;;;;5.63;1.13;;;11.80;95.50;;;;;;5120177;28;20471;-74
2022/11/21 14:25:52;;;;;;;4.78;0.90;;;11.80;95.20;;;;;;5127910;27;20017;-74
2022/11/21 14:28:21;;;;;;;7.25;1.55;;;11.90;94.30;;;;;;5107651;28;20047;-74
2022/11/21 14:30:47;;;;;;;8.40;1.13;;;11.90;96.60;;;;;;5119537;28;20103;-74
2022/11/21 14:33:35;;;;;;;6.35;1.40;;;11.90;96.60;;;;;;5120027;28;20059;-74
2022/11/21 14:36:16;;;;;;;5.72;1.25;;;11.90;96.70;;;;;;5101124;28;20034;-74
2022/11/21 14:39:06;;;;;;;6.13;1.48;;;11.90;94.70;;;;;;5101512;28;20097;-74
2022/11/21 14:41:33;;;;;;;3.03;0.85;;;11.80;94.20;;;;;;5120000;28;20019;-74